sensor_id;sensor_type;location;lat;lon;timestamp;pressure;altitude;pressure_sealevel;temperature;humidity
50103;BME280;35993;52.604;10.078;2023-07-13T00:02:23;100889.28;;;20.02;71.73
50103;BME280;35993;52.604;10.078;2023-07-13T00:04:49;100892.06;;;19.91;71.72
50103;BME280;35993;52.604;10.078;2023-07-13T00:07:16;100900.56;;;19.85;71.33
50103;BME280;35993;52.604;10.078;2023-07-13T00:09:48;100909.38;;;19.76;71.60
50103;BME280;35993;52.604;10.078;2023-07-13T00:12:25;100907.16;;;19.78;71.39
50103;BME280;35993;52.604;10.078;2023-07-13T00:14:51;100909.94;;;19.78;71.79
50103;BME280;35993;52.604;10.078;2023-07-13T00:17:17;100909.91;;;19.63;71.57
50103;BME280;35993;52.604;10.078;2023-07-13T00:19:42;100909.63;;;19.59;72.57
50103;BME280;35993;52.604;10.078;2023-07-13T00:22:08;100909.06;;;19.62;71.57
50103;BME280;35993;52.604;10.078;2023-07-13T00:24:33;100913.75;;;19.57;71.62
50103;BME280;35993;52.604;10.078;2023-07-13T00:27:01;100910.44;;;19.49;71.55
50103;BME280;35993;52.604;10.078;2023-07-13T00:29:27;100911.53;;;19.48;72.34
50103;BME280;35993;52.604;10.078;2023-07-13T00:31:52;100902.69;;;19.31;72.29
50103;BME280;35993;52.604;10.078;2023-07-13T00:34:18;100912.34;;;19.39;72.56
50103;BME280;35993;52.604;10.078;2023-07-13T00:36:44;100909.59;;;19.49;72.00
50103;BME280;35993;52.604;10.078;2023-07-13T00:39:09;100912.84;;;19.25;72.40
50103;BME280;35993;52.604;10.078;2023-07-13T00:41:35;100913.41;;;19.32;72.46
50103;BME280;35993;52.604;10.078;2023-07-13T00:44:03;100902.41;;;19.32;72.04
50103;BME280;35993;52.604;10.078;2023-07-13T00:46:31;100910.06;;;19.20;72.62
50103;BME280;35993;52.604;10.078;2023-07-13T00:49:00;100905.13;;;19.22;72.69
50103;BME280;35993;52.604;10.078;2023-07-13T00:51:48;100914.53;;;19.37;72.32
50103;BME280;35993;52.604;10.078;2023-07-13T00:54:21;100906.72;;;19.08;72.95
50103;BME280;35993;52.604;10.078;2023-07-13T00:56:50;100916.13;;;19.12;73.61
50103;BME280;35993;52.604;10.078;2023-07-13T00:59:18;100918.31;;;19.15;73.44
50103;BME280;35993;52.604;10.078;2023-07-13T01:01:45;100917.00;;;19.33;73.12
50103;BME280;35993;52.604;10.078;2023-07-13T01:04:11;100916.34;;;19.10;73.22
50103;BME280;35993;52.604;10.078;2023-07-13T01:06:40;100923.25;;;19.13;73.39
50103;BME280;35993;52.604;10.078;2023-07-13T01:09:07;100923.81;;;19.15;73.23
50103;BME280;35993;52.604;10.078;2023-07-13T01:11:33;100918.28;;;19.10;73.15
50103;BME280;35993;52.604;10.078;2023-07-13T01:14:01;100918.59;;;19.19;73.43
50103;BME280;35993;52.604;10.078;2023-07-13T01:16:29;100918.09;;;19.32;72.91
50103;BME280;35993;52.604;10.078;2023-07-13T01:18:56;100917.75;;;19.18;72.86
50103;BME280;35993;52.604;10.078;2023-07-13T01:21:24;100913.91;;;19.19;72.82
50103;BME280;35993;52.604;10.078;2023-07-13T01:23:50;100912.53;;;19.16;73.09
50103;BME280;35993;52.604;10.078;2023-07-13T01:26:17;100915.28;;;19.16;73.11
50103;BME280;35993;52.604;10.078;2023-07-13T01:28:42;100918.88;;;19.17;72.78
50103;BME280;35993;52.604;10.078;2023-07-13T01:31:09;100915.84;;;19.19;73.24
50103;BME280;35993;52.604;10.078;2023-07-13T01:33:38;100915.88;;;19.24;72.78
50103;BME280;35993;52.604;10.078;2023-07-13T01:36:09;100909.81;;;19.27;72.57
50103;BME280;35993;52.604;10.078;2023-07-13T01:38:37;100913.41;;;19.22;73.02
50103;BME280;35993;52.604;10.078;2023-07-13T01:41:03;100905.66;;;19.14;73.26
50103;BME280;35993;52.604;10.078;2023-07-13T01:43:29;100908.72;;;19.28;72.66
50103;BME280;35993;52.604;10.078;2023-07-13T01:45:54;100901.34;;;19.39;72.66
50103;BME280;35993;52.604;10.078;2023-07-13T01:48:20;100906.81;;;19.34;72.84
50103;BME280;35993;52.604;10.078;2023-07-13T01:50:47;100909.81;;;19.27;72.82
50103;BME280;35993;52.604;10.078;2023-07-13T01:53:13;100910.66;;;19.32;73.21
50103;BME280;35993;52.604;10.078;2023-07-13T01:55:39;100915.28;;;19.16;72.68
50103;BME280;35993;52.604;10.078;2023-07-13T01:58:04;100914.44;;;19.11;73.33
50103;BME280;35993;52.604;10.078;2023-07-13T02:00:30;100909.03;;;18.78;74.03
50103;BME280;35993;52.604;10.078;2023-07-13T02:02:56;100910.09;;;18.67;74.94
50103;BME280;35993;52.604;10.078;2023-07-13T02:05:22;100913.25;;;18.91;74.45
50103;BME280;35993;52.604;10.078;2023-07-13T02:07:47;100911.56;;;18.85;74.29
50103;BME280;35993;52.604;10.078;2023-07-13T02:10:13;100915.09;;;18.80;74.50
50103;BME280;35993;52.604;10.078;2023-07-13T02:12:40;100918.69;;;18.86;74.36
50103;BME280;35993;52.604;10.078;2023-07-13T02:15:06;100919.28;;;18.88;74.20
50103;BME280;35993;52.604;10.078;2023-07-13T02:17:34;100918.97;;;18.84;73.86
50103;BME280;35993;52.604;10.078;2023-07-13T02:20:00;100923.34;;;18.80;74.22
50103;BME280;35993;52.604;10.078;2023-07-13T02:22:25;100928.84;;;18.80;74.87
50103;BME280;35993;52.604;10.078;2023-07-13T02:24:51;100921.09;;;18.67;74.03
50103;BME280;35993;52.604;10.078;2023-07-13T02:27:18;100918.09;;;18.74;74.74
50103;BME280;35993;52.604;10.078;2023-07-13T02:29:43;100921.19;;;18.82;74.58
50103;BME280;35993;52.604;10.078;2023-07-13T02:32:09;100917.88;;;18.86;73.74
50103;BME280;35993;52.604;10.078;2023-07-13T02:34:35;100919.47;;;18.71;74.10
50103;BME280;35993;52.604;10.078;2023-07-13T02:37:03;100928.19;;;18.63;74.90
50103;BME280;35993;52.604;10.078;2023-07-13T02:39:29;100933.41;;;18.59;75.44
50103;BME280;35993;52.604;10.078;2023-07-13T02:41:59;100933.66;;;18.58;75.70
50103;BME280;35993;52.604;10.078;2023-07-13T02:44:25;100928.19;;;18.58;75.77
50103;BME280;35993;52.604;10.078;2023-07-13T02:46:51;100934.94;;;18.40;76.01
50103;BME280;35993;52.604;10.078;2023-07-13T02:49:16;100936.88;;;18.39;76.00
50103;BME280;35993;52.604;10.078;2023-07-13T02:51:42;100938.72;;;18.33;76.31
50103;BME280;35993;52.604;10.078;2023-07-13T02:54:09;100934.63;;;18.36;75.98
50103;BME280;35993;52.604;10.078;2023-07-13T02:56:35;100931.00;;;18.25;76.63
50103;BME280;35993;52.604;10.078;2023-07-13T02:59:01;100936.47;;;18.25;76.62
50103;BME280;35993;52.604;10.078;2023-07-13T03:01:28;100932.03;;;18.19;76.99
50103;BME280;35993;52.604;10.078;2023-07-13T03:03:53;100932.81;;;18.14;77.27
50103;BME280;35993;52.604;10.078;2023-07-13T03:06:19;100932.91;;;18.25;76.42
50103;BME280;35993;52.604;10.078;2023-07-13T03:08:50;100934.00;;;18.24;76.54
50103;BME280;35993;52.604;10.078;2023-07-13T03:11:18;100934.25;;;18.22;76.54
50103;BME280;35993;52.604;10.078;2023-07-13T03:13:48;100926.63;;;18.29;76.55
50103;BME280;35993;52.604;10.078;2023-07-13T03:16:15;100928.75;;;18.22;76.42
50103;BME280;35993;52.604;10.078;2023-07-13T03:18:42;100933.50;;;18.32;76.72
50103;BME280;35993;52.604;10.078;2023-07-13T03:21:10;100935.91;;;18.23;76.36
50103;BME280;35993;52.604;10.078;2023-07-13T03:23:35;100931.53;;;18.27;75.63
50103;BME280;35993;52.604;10.078;2023-07-13T03:28:35;100946.91;;;18.23;75.52
50103;BME280;35993;52.604;10.078;2023-07-13T03:31:05;100946.94;;;18.28;75.97
50103;BME280;35993;52.604;10.078;2023-07-13T03:33:32;100939.22;;;18.25;75.60
50103;BME280;35993;52.604;10.078;2023-07-13T03:35:58;100936.59;;;18.41;75.50
50103;BME280;35993;52.604;10.078;2023-07-13T03:38:24;100937.75;;;18.50;75.12
50103;BME280;35993;52.604;10.078;2023-07-13T03:40:51;100931.91;;;18.41;74.79
50103;BME280;35993;52.604;10.078;2023-07-13T03:43:17;100924.50;;;18.42;74.36
50103;BME280;35993;52.604;10.078;2023-07-13T03:45:42;100933.81;;;18.36;74.70
50103;BME280;35993;52.604;10.078;2023-07-13T03:48:09;100939.00;;;18.32;74.61
50103;BME280;35993;52.604;10.078;2023-07-13T03:50:34;100932.16;;;18.34;74.15
50103;BME280;35993;52.604;10.078;2023-07-13T03:53:01;100938.22;;;18.37;73.89
50103;BME280;35993;52.604;10.078;2023-07-13T03:55:27;100946.44;;;18.31;74.37
50103;BME280;35993;52.604;10.078;2023-07-13T03:57:58;100939.13;;;18.10;75.06
50103;BME280;35993;52.604;10.078;2023-07-13T04:00:24;100939.53;;;18.29;74.85
50103;BME280;35993;52.604;10.078;2023-07-13T04:02:53;100949.19;;;18.31;74.38
50103;BME280;35993;52.604;10.078;2023-07-13T04:05:18;100952.69;;;18.27;74.29
50103;BME280;35993;52.604;10.078;2023-07-13T04:07:45;100955.94;;;18.18;74.35
50103;BME280;35993;52.604;10.078;2023-07-13T04:10:11;100960.13;;;18.26;73.96
50103;BME280;35993;52.604;10.078;2023-07-13T04:12:36;100960.72;;;18.33;74.07
50103;BME280;35993;52.604;10.078;2023-07-13T04:15:03;100960.38;;;18.25;73.56
50103;BME280;35993;52.604;10.078;2023-07-13T04:17:28;100970.94;;;18.38;74.15
50103;BME280;35993;52.604;10.078;2023-07-13T04:19:54;100960.81;;;18.49;73.35
50103;BME280;35993;52.604;10.078;2023-07-13T04:22:19;100971.84;;;18.54;73.09
50103;BME280;35993;52.604;10.078;2023-07-13T04:24:45;100961.91;;;18.43;73.17
50103;BME280;35993;52.604;10.078;2023-07-13T04:27:11;100964.84;;;18.36;72.88
50103;BME280;35993;52.604;10.078;2023-07-13T04:29:36;100967.28;;;18.32;73.31
50103;BME280;35993;52.604;10.078;2023-07-13T04:32:02;100971.38;;;18.62;72.61
50103;BME280;35993;52.604;10.078;2023-07-13T04:34:27;100968.69;;;18.73;71.87
50103;BME280;35993;52.604;10.078;2023-07-13T04:36:53;100969.28;;;18.80;70.89
50103;BME280;35993;52.604;10.078;2023-07-13T04:39:18;100964.06;;;18.83;71.33
50103;BME280;35993;52.604;10.078;2023-07-13T04:41:44;100964.91;;;18.84;71.14
50103;BME280;35993;52.604;10.078;2023-07-13T04:44:09;100965.63;;;18.69;71.46
50103;BME280;35993;52.604;10.078;2023-07-13T04:46:35;100966.72;;;18.68;71.50
50103;BME280;35993;52.604;10.078;2023-07-13T04:49:00;100962.03;;;18.63;72.06
50103;BME280;35993;52.604;10.078;2023-07-13T04:51:26;100963.41;;;18.61;71.38
50103;BME280;35993;52.604;10.078;2023-07-13T04:53:52;100968.31;;;18.59;71.42
50103;BME280;35993;52.604;10.078;2023-07-13T04:56:17;100976.84;;;18.57;71.53
50103;BME280;35993;52.604;10.078;2023-07-13T04:58:44;100966.97;;;18.61;71.43
50103;BME280;35993;52.604;10.078;2023-07-13T05:01:10;100979.13;;;18.71;71.05
50103;BME280;35993;52.604;10.078;2023-07-13T05:03:36;100975.81;;;18.69;71.23
50103;BME280;35993;52.604;10.078;2023-07-13T05:06:06;100978.38;;;18.80;70.78
50103;BME280;35993;52.604;10.078;2023-07-13T05:08:32;100979.47;;;18.84;70.93
50103;BME280;35993;52.604;10.078;2023-07-13T05:11:02;100978.31;;;18.70;70.84
50103;BME280;35993;52.604;10.078;2023-07-13T05:13:29;100976.19;;;18.82;71.04
50103;BME280;35993;52.604;10.078;2023-07-13T05:15:57;100979.94;;;18.66;71.08
50103;BME280;35993;52.604;10.078;2023-07-13T05:18:22;100984.47;;;18.88;70.22
50103;BME280;35993;52.604;10.078;2023-07-13T05:21:04;100975.63;;;19.28;68.85
50103;BME280;35993;52.604;10.078;2023-07-13T05:23:30;100979.47;;;19.27;68.40
50103;BME280;35993;52.604;10.078;2023-07-13T05:25:56;100981.31;;;19.16;68.69
50103;BME280;35993;52.604;10.078;2023-07-13T05:28:22;100978.41;;;19.39;68.47
50103;BME280;35993;52.604;10.078;2023-07-13T05:30:49;100977.38;;;19.65;67.22
50103;BME280;35993;52.604;10.078;2023-07-13T05:33:15;100984.53;;;19.72;67.31
50103;BME280;35993;52.604;10.078;2023-07-13T05:35:41;100985.72;;;19.86;66.74
50103;BME280;35993;52.604;10.078;2023-07-13T05:38:06;100992.91;;;20.28;65.66
50103;BME280;35993;52.604;10.078;2023-07-13T05:40:32;100987.94;;;20.25;65.03
50103;BME280;35993;52.604;10.078;2023-07-13T05:42:57;100989.88;;;20.25;64.63
50103;BME280;35993;52.604;10.078;2023-07-13T05:45:23;100985.47;;;20.34;64.44
50103;BME280;35993;52.604;10.078;2023-07-13T05:47:48;100979.09;;;20.59;63.80
50103;BME280;35993;52.604;10.078;2023-07-13T05:50:14;100983.53;;;20.71;63.61
50103;BME280;35993;52.604;10.078;2023-07-13T05:52:40;100990.13;;;20.59;63.52
50103;BME280;35993;52.604;10.078;2023-07-13T05:55:05;101008.91;;;20.32;64.13
50103;BME280;35993;52.604;10.078;2023-07-13T05:57:31;101014.41;;;20.47;63.57
50103;BME280;35993;52.604;10.078;2023-07-13T05:59:57;101011.94;;;20.45;63.71
50103;BME280;35993;52.604;10.078;2023-07-13T06:02:22;101014.16;;;20.54;63.14
50103;BME280;35993;52.604;10.078;2023-07-13T06:04:48;101002.28;;;20.74;62.76
50103;BME280;35993;52.604;10.078;2023-07-13T06:07:14;101002.84;;;20.71;62.30
50103;BME280;35993;52.604;10.078;2023-07-13T06:09:40;101006.09;;;20.68;62.48
50103;BME280;35993;52.604;10.078;2023-07-13T06:12:06;101009.44;;;20.70;62.65
50103;BME280;35993;52.604;10.078;2023-07-13T06:14:32;101011.88;;;21.02;61.48
50103;BME280;35993;52.604;10.078;2023-07-13T06:16:57;100998.66;;;20.89;61.20
50103;BME280;35993;52.604;10.078;2023-07-13T06:19:23;101006.09;;;20.99;60.72
50103;BME280;35993;52.604;10.078;2023-07-13T06:21:49;100997.31;;;20.81;60.50
50103;BME280;35993;52.604;10.078;2023-07-13T06:24:14;100997.28;;;20.91;60.10
50103;BME280;35993;52.604;10.078;2023-07-13T06:26:40;101000.81;;;21.13;59.05
50103;BME280;35993;52.604;10.078;2023-07-13T06:29:05;101006.88;;;21.15;59.39
50103;BME280;35993;52.604;10.078;2023-07-13T06:31:31;101006.56;;;21.21;58.99
50103;BME280;35993;52.604;10.078;2023-07-13T06:33:56;101002.09;;;21.36;58.67
50103;BME280;35993;52.604;10.078;2023-07-13T06:36:22;101003.22;;;21.35;58.70
50103;BME280;35993;52.604;10.078;2023-07-13T06:38:50;101012.00;;;21.47;58.44
50103;BME280;35993;52.604;10.078;2023-07-13T06:41:18;101012.00;;;21.47;57.72
50103;BME280;35993;52.604;10.078;2023-07-13T06:43:43;101014.81;;;21.32;58.63
50103;BME280;35993;52.604;10.078;2023-07-13T06:46:09;101015.94;;;21.31;57.85
50103;BME280;35993;52.604;10.078;2023-07-13T06:48:35;101013.09;;;21.51;57.80
50103;BME280;35993;52.604;10.078;2023-07-13T06:51:01;101026.19;;;21.80;57.13
50103;BME280;35993;52.604;10.078;2023-07-13T06:53:27;101012.47;;;21.65;56.27
50103;BME280;35993;52.604;10.078;2023-07-13T06:55:53;101021.38;;;21.51;57.03
50103;BME280;35993;52.604;10.078;2023-07-13T06:58:19;101028.16;;;21.80;56.35
50103;BME280;35993;52.604;10.078;2023-07-13T07:00:45;101022.38;;;21.76;56.30
50103;BME280;35993;52.604;10.078;2023-07-13T07:03:11;101025.78;;;21.57;56.65
50103;BME280;35993;52.604;10.078;2023-07-13T07:05:36;101024.09;;;21.67;56.58
50103;BME280;35993;52.604;10.078;2023-07-13T07:08:02;101019.28;;;21.83;56.18
50103;BME280;35993;52.604;10.078;2023-07-13T07:10:29;101023.31;;;22.06;55.31
50103;BME280;35993;52.604;10.078;2023-07-13T07:12:55;101024.84;;;21.77;55.19
50103;BME280;35993;52.604;10.078;2023-07-13T07:15:21;101021.47;;;21.91;55.12
50103;BME280;35993;52.604;10.078;2023-07-13T07:17:46;101011.19;;;22.31;54.19
50103;BME280;35993;52.604;10.078;2023-07-13T07:20:12;101016.00;;;22.20;53.79
50103;BME280;35993;52.604;10.078;2023-07-13T07:22:38;101016.25;;;22.24;53.51
50103;BME280;35993;52.604;10.078;2023-07-13T07:25:04;101010.34;;;22.41;53.44
50103;BME280;35993;52.604;10.078;2023-07-13T07:27:29;101022.81;;;22.33;54.00
50103;BME280;35993;52.604;10.078;2023-07-13T07:29:55;101017.31;;;22.92;52.96
50103;BME280;35993;52.604;10.078;2023-07-13T07:32:23;101011.84;;;22.57;52.51
50103;BME280;35993;52.604;10.078;2023-07-13T07:34:49;101009.94;;;22.53;52.63
50103;BME280;35993;52.604;10.078;2023-07-13T07:37:14;101011.66;;;22.49;52.60
50103;BME280;35993;52.604;10.078;2023-07-13T07:39:40;101019.69;;;22.45;53.35
50103;BME280;35993;52.604;10.078;2023-07-13T07:42:06;101024.28;;;22.60;53.82
50103;BME280;35993;52.604;10.078;2023-07-13T07:44:32;101012.91;;;22.27;52.48
50103;BME280;35993;52.604;10.078;2023-07-13T07:46:58;101016.63;;;22.07;53.73
50103;BME280;35993;52.604;10.078;2023-07-13T07:49:24;101018.28;;;21.63;54.89
50103;BME280;35993;52.604;10.078;2023-07-13T07:51:50;101033.72;;;21.74;56.08
50103;BME280;35993;52.604;10.078;2023-07-13T07:54:16;101023.47;;;21.75;55.31
50103;BME280;35993;52.604;10.078;2023-07-13T07:56:42;101024.59;;;21.69;55.69
50103;BME280;35993;52.604;10.078;2023-07-13T07:59:07;101009.13;;;21.73;54.44
50103;BME280;35993;52.604;10.078;2023-07-13T08:01:33;101024.28;;;21.81;55.04
50103;BME280;35993;52.604;10.078;2023-07-13T08:03:58;101030.22;;;21.43;55.60
50103;BME280;35993;52.604;10.078;2023-07-13T08:06:24;101020.38;;;21.16;56.26
50103;BME280;35993;52.604;10.078;2023-07-13T08:08:50;101029.03;;;20.89;57.19
50103;BME280;35993;52.604;10.078;2023-07-13T08:11:17;101031.22;;;20.40;57.75
50103;BME280;35993;52.604;10.078;2023-07-13T08:13:45;101041.16;;;20.46;58.01
50103;BME280;35993;52.604;10.078;2023-07-13T08:16:11;101025.97;;;20.95;56.96
50103;BME280;35993;52.604;10.078;2023-07-13T08:18:37;101023.03;;;21.52;56.32
50103;BME280;35993;52.604;10.078;2023-07-13T08:21:06;101020.28;;;21.57;55.60
50103;BME280;35993;52.604;10.078;2023-07-13T08:23:33;101028.03;;;21.45;55.44
50103;BME280;35993;52.604;10.078;2023-07-13T08:25:58;101017.13;;;21.74;53.22
50103;BME280;35993;52.604;10.078;2023-07-13T08:28:27;101027.59;;;22.22;53.06
50103;BME280;35993;52.604;10.078;2023-07-13T08:31:03;101028.72;;;22.21;53.38
50103;BME280;35993;52.604;10.078;2023-07-13T08:33:29;101016.78;;;22.61;52.29
50103;BME280;35993;52.604;10.078;2023-07-13T08:35:54;101029.44;;;22.37;52.24
50103;BME280;35993;52.604;10.078;2023-07-13T08:38:20;101025.94;;;21.82;53.43
50103;BME280;35993;52.604;10.078;2023-07-13T08:40:52;101033.63;;;21.90;53.87
50103;BME280;35993;52.604;10.078;2023-07-13T08:43:23;101031.63;;;22.35;53.35
50103;BME280;35993;52.604;10.078;2023-07-13T08:45:53;101026.84;;;22.12;53.42
50103;BME280;35993;52.604;10.078;2023-07-13T08:48:26;101034.81;;;22.18;53.69
50103;BME280;35993;52.604;10.078;2023-07-13T08:50:56;101038.56;;;22.33;53.59
50103;BME280;35993;52.604;10.078;2023-07-13T08:53:27;101029.50;;;22.91;52.72
50103;BME280;35993;52.604;10.078;2023-07-13T08:55:58;101031.22;;;22.87;53.06
50103;BME280;35993;52.604;10.078;2023-07-13T08:58:25;101033.31;;;22.95;53.16
50103;BME280;35993;52.604;10.078;2023-07-13T09:01:24;101028.41;;;22.63;53.16
50103;BME280;35993;52.604;10.078;2023-07-13T09:04:02;101025.38;;;22.59;53.55
50103;BME280;35993;52.604;10.078;2023-07-13T09:09:24;101022.00;;;22.91;52.87
50103;BME280;35993;52.604;10.078;2023-07-13T09:12:02;101029.81;;;22.89;52.18
50103;BME280;35993;52.604;10.078;2023-07-13T09:14:50;101029.44;;;23.26;52.08
50103;BME280;35993;52.604;10.078;2023-07-13T09:17:26;101019.72;;;22.99;52.38
50103;BME280;35993;52.604;10.078;2023-07-13T09:19:58;101029.81;;;22.89;52.10
50103;BME280;35993;52.604;10.078;2023-07-13T09:22:26;101041.56;;;23.30;53.00
50103;BME280;35993;52.604;10.078;2023-07-13T09:27:48;101035.13;;;23.78;50.46
50103;BME280;35993;52.604;10.078;2023-07-13T09:32:50;101025.28;;;23.91;50.47
50103;BME280;35993;52.604;10.078;2023-07-13T09:35:31;101029.81;;;23.62;50.12
50103;BME280;35993;52.604;10.078;2023-07-13T09:37:59;101031.59;;;23.29;50.14
50103;BME280;35993;52.604;10.078;2023-07-13T09:43:30;101026.81;;;23.59;50.05
50103;BME280;35993;52.604;10.078;2023-07-13T09:45:55;101029.81;;;23.14;51.32
50103;BME280;35993;52.604;10.078;2023-07-13T09:48:21;101041.94;;;22.94;51.94
50103;BME280;35993;52.604;10.078;2023-07-13T09:50:47;101043.78;;;23.03;52.46
50103;BME280;35993;52.604;10.078;2023-07-13T09:53:15;101039.91;;;23.72;51.40
50103;BME280;35993;52.604;10.078;2023-07-13T09:55:43;101024.59;;;23.99;49.31
50103;BME280;35993;52.604;10.078;2023-07-13T09:58:18;101007.88;;;24.04;48.24
50103;BME280;35993;52.604;10.078;2023-07-13T10:00:57;101028.69;;;23.63;49.19
50103;BME280;35993;52.604;10.078;2023-07-13T10:03:35;101021.06;;;23.74;49.08
50103;BME280;35993;52.604;10.078;2023-07-13T10:06:16;101022.66;;;23.99;49.05
50103;BME280;35993;52.604;10.078;2023-07-13T10:08:44;101023.44;;;23.81;50.02
50103;BME280;35993;52.604;10.078;2023-07-13T10:13:46;101029.09;;;24.14;49.76
50103;BME280;35993;52.604;10.078;2023-07-13T10:16:14;101025.38;;;24.70;48.91
50103;BME280;35993;52.604;10.078;2023-07-13T10:18:56;101014.16;;;24.62;47.25
50103;BME280;35993;52.604;10.078;2023-07-13T10:21:32;101007.72;;;24.14;47.64
50103;BME280;35993;52.604;10.078;2023-07-13T10:24:25;101005.38;;;24.21;47.94
50103;BME280;35993;52.604;10.078;2023-07-13T10:27:11;101011.25;;;25.14;47.11
50103;BME280;35993;52.604;10.078;2023-07-13T10:29:51;101004.34;;;25.11;45.83
50103;BME280;35993;52.604;10.078;2023-07-13T10:32:21;101015.91;;;24.38;46.94
50103;BME280;35993;52.604;10.078;2023-07-13T10:34:47;101008.25;;;24.16;46.60
50103;BME280;35993;52.604;10.078;2023-07-13T10:37:27;101008.81;;;24.65;46.39
50103;BME280;35993;52.604;10.078;2023-07-13T10:39:56;100999.50;;;24.75;46.15
50103;BME280;35993;52.604;10.078;2023-07-13T10:42:40;101001.56;;;25.25;46.13
50103;BME280;35993;52.604;10.078;2023-07-13T10:45:17;101003.75;;;24.53;45.64
50103;BME280;35993;52.604;10.078;2023-07-13T10:47:44;101014.31;;;24.51;46.89
50103;BME280;35993;52.604;10.078;2023-07-13T10:50:29;101003.16;;;24.24;45.35
50103;BME280;35993;52.604;10.078;2023-07-13T10:53:15;100999.75;;;23.88;46.31
50103;BME280;35993;52.604;10.078;2023-07-13T10:58:40;101025.22;;;23.52;47.86
50103;BME280;35993;52.604;10.078;2023-07-13T11:01:11;101022.59;;;24.04;47.82
50103;BME280;35993;52.604;10.078;2023-07-13T11:06:27;101003.28;;;24.65;45.27
50103;BME280;35993;52.604;10.078;2023-07-13T11:09:00;100984.63;;;24.52;44.32
50103;BME280;35993;52.604;10.078;2023-07-13T11:13:58;100988.13;;;25.69;43.59
50103;BME280;35993;52.604;10.078;2023-07-13T11:16:32;100972.78;;;24.93;42.84
50103;BME280;35993;52.604;10.078;2023-07-13T11:21:28;101007.09;;;24.36;44.16
50103;BME280;35993;52.604;10.078;2023-07-13T11:24:03;101001.56;;;24.69;43.10
50103;BME280;35993;52.604;10.078;2023-07-13T11:26:51;100997.78;;;25.07;43.33
50103;BME280;35993;52.604;10.078;2023-07-13T11:31:43;100990.69;;;26.16;41.93
50103;BME280;35993;52.604;10.078;2023-07-13T11:34:19;100988.31;;;26.55;42.03
50103;BME280;35993;52.604;10.078;2023-07-13T11:36:47;100984.19;;;26.21;41.19
50103;BME280;35993;52.604;10.078;2023-07-13T11:39:19;100971.06;;;26.44;39.99
50103;BME280;35993;52.604;10.078;2023-07-13T11:41:55;100982.03;;;26.17;40.63
50103;BME280;35993;52.604;10.078;2023-07-13T11:44:24;100997.25;;;25.97;42.55
50103;BME280;35993;52.604;10.078;2023-07-13T11:46:55;100990.94;;;26.28;41.67
50103;BME280;35993;52.604;10.078;2023-07-13T11:49:24;100980.66;;;26.60;40.86
50103;BME280;35993;52.604;10.078;2023-07-13T11:51:51;100986.44;;;26.19;41.07
50103;BME280;35993;52.604;10.078;2023-07-13T11:56:49;100982.66;;;25.55;40.69
50103;BME280;35993;52.604;10.078;2023-07-13T11:59:15;100984.09;;;25.52;40.85
50103;BME280;35993;52.604;10.078;2023-07-13T12:01:49;100988.16;;;26.06;40.69
50103;BME280;35993;52.604;10.078;2023-07-13T12:04:31;100988.41;;;25.81;40.51
50103;BME280;35993;52.604;10.078;2023-07-13T12:07:04;100994.41;;;24.96;41.83
50103;BME280;35993;52.604;10.078;2023-07-13T12:09:30;101011.16;;;24.91;42.98
50103;BME280;35993;52.604;10.078;2023-07-13T12:11:57;101009.81;;;24.89;42.89
50103;BME280;35993;52.604;10.078;2023-07-13T12:14:25;101004.53;;;24.73;43.08
50103;BME280;35993;52.604;10.078;2023-07-13T12:16:52;101000.53;;;24.79;42.29
50103;BME280;35993;52.604;10.078;2023-07-13T12:19:21;100987.38;;;24.85;41.71
50103;BME280;35993;52.604;10.078;2023-07-13T12:21:48;100996.69;;;25.73;41.62
50103;BME280;35993;52.604;10.078;2023-07-13T12:24:16;100982.53;;;25.83;40.58
50103;BME280;35993;52.604;10.078;2023-07-13T12:26:42;100991.84;;;26.01;41.55
50103;BME280;35993;52.604;10.078;2023-07-13T12:29:07;100976.91;;;26.11;39.72
50103;BME280;35993;52.604;10.078;2023-07-13T12:31:46;100973.59;;;25.86;39.84
50103;BME280;35993;52.604;10.078;2023-07-13T12:36:41;100998.22;;;25.79;40.86
50103;BME280;35993;52.604;10.078;2023-07-13T12:39:14;100986.09;;;25.75;40.85
50103;BME280;35993;52.604;10.078;2023-07-13T12:41:40;100980.44;;;26.25;40.10
50103;BME280;35993;52.604;10.078;2023-07-13T12:44:11;100983.13;;;26.62;39.56
50103;BME280;35993;52.604;10.078;2023-07-13T12:46:37;101000.63;;;26.85;38.83
50103;BME280;35993;52.604;10.078;2023-07-13T12:49:06;100997.91;;;26.17;41.29
50103;BME280;35993;52.604;10.078;2023-07-13T12:51:32;101003.91;;;25.74;41.81
50103;BME280;35993;52.604;10.078;2023-07-13T12:54:17;101013.63;;;25.48;42.83
50103;BME280;35993;52.604;10.078;2023-07-13T12:56:45;101011.66;;;25.21;43.20
50103;BME280;35993;52.604;10.078;2023-07-13T12:59:19;101014.88;;;25.14;43.73
50103;BME280;35993;52.604;10.078;2023-07-13T13:01:46;101028.13;;;25.03;43.86
50103;BME280;35993;52.604;10.078;2023-07-13T13:04:12;101063.16;;;24.52;47.41
50103;BME280;35993;52.604;10.078;2023-07-13T13:06:39;101076.16;;;24.38;50.50
50103;BME280;35993;52.604;10.078;2023-07-13T13:09:12;101079.31;;;23.93;52.82
50103;BME280;35993;52.604;10.078;2023-07-13T13:11:41;101071.97;;;23.59;53.25
50103;BME280;35993;52.604;10.078;2023-07-13T13:14:07;101078.28;;;23.65;55.15
50103;BME280;35993;52.604;10.078;2023-07-13T13:16:36;101072.53;;;23.80;53.71
50103;BME280;35993;52.604;10.078;2023-07-13T13:19:24;101071.13;;;23.59;53.90
50103;BME280;35993;52.604;10.078;2023-07-13T13:21:52;101077.69;;;23.44;55.07